sensor_id;sensor_type;location;lat;lon;timestamp;P1;durP1;ratioP1;P2;durP2;ratioP2
11006;SDS011;8186;57.652;11.968;2023-03-17T00:00:48;1.97;;;0.63;;
11006;SDS011;8186;57.652;11.968;2023-03-17T00:03:18;3.20;;;0.80;;
11006;SDS011;8186;57.652;11.968;2023-03-17T00:05:46;2.13;;;0.80;;
11006;SDS011;8186;57.652;11.968;2023-03-17T00:08:16;0.87;;;0.50;;
11006;SDS011;8186;57.652;11.968;2023-03-17T00:10:46;3.27;;;0.70;;
11006;SDS011;8186;57.652;11.968;2023-03-17T00:13:13;1.80;;;0.70;;
11006;SDS011;8186;57.652;11.968;2023-03-17T00:15:41;0.87;;;0.67;;
11006;SDS011;8186;57.652;11.968;2023-03-17T00:18:10;1.70;;;0.73;;
11006;SDS011;8186;57.652;11.968;2023-03-17T00:20:40;2.67;;;0.77;;
11006;SDS011;8186;57.652;11.968;2023-03-17T00:23:09;2.13;;;0.70;;
11006;SDS011;8186;57.652;11.968;2023-03-17T00:25:39;5.50;;;0.93;;
11006;SDS011;8186;57.652;11.968;2023-03-17T00:28:08;1.27;;;0.73;;
11006;SDS011;8186;57.652;11.968;2023-03-17T00:30:43;2.53;;;0.90;;
11006;SDS011;8186;57.652;11.968;2023-03-17T00:33:10;4.57;;;1.30;;
11006;SDS011;8186;57.652;11.968;2023-03-17T00:35:39;1.80;;;1.00;;
11006;SDS011;8186;57.652;11.968;2023-03-17T00:38:09;3.87;;;0.90;;
11006;SDS011;8186;57.652;11.968;2023-03-17T00:40:40;1.97;;;0.80;;
11006;SDS011;8186;57.652;11.968;2023-03-17T00:43:09;2.47;;;0.90;;
11006;SDS011;8186;57.652;11.968;2023-03-17T00:45:36;2.00;;;1.00;;
11006;SDS011;8186;57.652;11.968;2023-03-17T00:48:09;2.20;;;0.80;;
11006;SDS011;8186;57.652;11.968;2023-03-17T00:50:39;2.30;;;0.80;;
11006;SDS011;8186;57.652;11.968;2023-03-17T00:53:09;5.53;;;0.90;;
11006;SDS011;8186;57.652;11.968;2023-03-17T00:55:37;2.90;;;1.10;;
11006;SDS011;8186;57.652;11.968;2023-03-17T00:58:08;2.67;;;0.80;;
11006;SDS011;8186;57.652;11.968;2023-03-17T01:00:38;1.90;;;0.70;;
11006;SDS011;8186;57.652;11.968;2023-03-17T01:03:08;1.70;;;0.70;;
11006;SDS011;8186;57.652;11.968;2023-03-17T01:05:37;1.80;;;0.80;;
11006;SDS011;8186;57.652;11.968;2023-03-17T01:08:05;2.50;;;1.07;;
11006;SDS011;8186;57.652;11.968;2023-03-17T01:10:33;6.60;;;0.80;;
11006;SDS011;8186;57.652;11.968;2023-03-17T01:13:00;2.80;;;0.90;;
11006;SDS011;8186;57.652;11.968;2023-03-17T01:15:29;1.63;;;0.90;;
11006;SDS011;8186;57.652;11.968;2023-03-17T01:17:56;2.40;;;0.90;;
11006;SDS011;8186;57.652;11.968;2023-03-17T01:20:26;2.53;;;0.90;;
11006;SDS011;8186;57.652;11.968;2023-03-17T01:22:55;4.27;;;1.07;;
11006;SDS011;8186;57.652;11.968;2023-03-17T01:25:22;3.10;;;0.90;;
11006;SDS011;8186;57.652;11.968;2023-03-17T01:27:50;2.93;;;0.97;;
11006;SDS011;8186;57.652;11.968;2023-03-17T01:30:23;2.40;;;1.00;;
11006;SDS011;8186;57.652;11.968;2023-03-17T01:32:52;2.77;;;1.00;;
11006;SDS011;8186;57.652;11.968;2023-03-17T01:35:20;3.23;;;1.00;;
11006;SDS011;8186;57.652;11.968;2023-03-17T01:37:50;1.80;;;0.80;;
11006;SDS011;8186;57.652;11.968;2023-03-17T01:40:18;2.10;;;0.83;;
11006;SDS011;8186;57.652;11.968;2023-03-17T01:42:48;3.40;;;0.90;;
11006;SDS011;8186;57.652;11.968;2023-03-17T01:48:23;4.47;;;1.17;;
11006;SDS011;8186;57.652;11.968;2023-03-17T01:50:53;2.30;;;1.10;;
11006;SDS011;8186;57.652;11.968;2023-03-17T01:53:23;4.97;;;1.20;;
11006;SDS011;8186;57.652;11.968;2023-03-17T01:55:51;4.33;;;1.40;;
11006;SDS011;8186;57.652;11.968;2023-03-17T01:58:19;1.70;;;1.00;;
11006;SDS011;8186;57.652;11.968;2023-03-17T02:00:47;6.77;;;1.47;;
11006;SDS011;8186;57.652;11.968;2023-03-17T02:03:14;4.30;;;1.30;;
11006;SDS011;8186;57.652;11.968;2023-03-17T02:05:42;3.10;;;1.73;;
11006;SDS011;8186;57.652;11.968;2023-03-17T02:08:10;3.13;;;1.20;;
11006;SDS011;8186;57.652;11.968;2023-03-17T02:10:39;3.77;;;1.50;;
11006;SDS011;8186;57.652;11.968;2023-03-17T02:13:07;4.33;;;2.13;;
11006;SDS011;8186;57.652;11.968;2023-03-17T02:15:36;3.70;;;1.23;;
11006;SDS011;8186;57.652;11.968;2023-03-17T02:18:04;3.93;;;1.67;;
11006;SDS011;8186;57.652;11.968;2023-03-17T02:23:37;4.27;;;1.60;;
11006;SDS011;8186;57.652;11.968;2023-03-17T02:26:04;4.83;;;1.97;;
11006;SDS011;8186;57.652;11.968;2023-03-17T02:28:32;4.97;;;1.60;;
11006;SDS011;8186;57.652;11.968;2023-03-17T02:31:00;1.83;;;1.40;;
11006;SDS011;8186;57.652;11.968;2023-03-17T02:33:27;3.13;;;1.33;;
11006;SDS011;8186;57.652;11.968;2023-03-17T02:35:56;2.43;;;1.20;;
11006;SDS011;8186;57.652;11.968;2023-03-17T02:38:23;2.10;;;1.03;;
11006;SDS011;8186;57.652;11.968;2023-03-17T02:40:53;3.33;;;1.50;;
11006;SDS011;8186;57.652;11.968;2023-03-17T02:43:20;3.23;;;1.60;;
11006;SDS011;8186;57.652;11.968;2023-03-17T02:45:47;3.50;;;1.37;;
11006;SDS011;8186;57.652;11.968;2023-03-17T02:48:14;2.10;;;1.20;;
11006;SDS011;8186;57.652;11.968;2023-03-17T02:50:41;1.80;;;1.00;;
11006;SDS011;8186;57.652;11.968;2023-03-17T02:53:08;3.93;;;1.43;;
11006;SDS011;8186;57.652;11.968;2023-03-17T02:55:35;3.33;;;1.40;;
11006;SDS011;8186;57.652;11.968;2023-03-17T02:58:06;3.83;;;1.50;;
11006;SDS011;8186;57.652;11.968;2023-03-17T03:00:33;2.63;;;1.50;;
11006;SDS011;8186;57.652;11.968;2023-03-17T03:03:03;4.07;;;1.50;;
11006;SDS011;8186;57.652;11.968;2023-03-17T03:05:30;2.40;;;1.20;;
11006;SDS011;8186;57.652;11.968;2023-03-17T03:07:57;3.47;;;1.50;;
11006;SDS011;8186;57.652;11.968;2023-03-17T03:10:24;5.23;;;1.40;;
11006;SDS011;8186;57.652;11.968;2023-03-17T03:12:51;3.33;;;1.43;;
11006;SDS011;8186;57.652;11.968;2023-03-17T03:15:19;5.23;;;1.70;;
11006;SDS011;8186;57.652;11.968;2023-03-17T03:17:47;5.37;;;1.67;;
11006;SDS011;8186;57.652;11.968;2023-03-17T03:20:14;3.10;;;1.67;;
11006;SDS011;8186;57.652;11.968;2023-03-17T03:22:41;4.93;;;1.30;;
11006;SDS011;8186;57.652;11.968;2023-03-17T03:25:10;5.73;;;1.53;;
11006;SDS011;8186;57.652;11.968;2023-03-17T03:27:37;4.20;;;1.40;;
11006;SDS011;8186;57.652;11.968;2023-03-17T03:30:05;3.37;;;1.70;;
11006;SDS011;8186;57.652;11.968;2023-03-17T03:32:36;2.60;;;1.53;;
11006;SDS011;8186;57.652;11.968;2023-03-17T03:35:03;4.07;;;1.27;;
11006;SDS011;8186;57.652;11.968;2023-03-17T03:37:31;6.07;;;1.50;;
11006;SDS011;8186;57.652;11.968;2023-03-17T03:39:58;2.40;;;1.40;;
11006;SDS011;8186;57.652;11.968;2023-03-17T03:42:25;2.97;;;1.33;;
11006;SDS011;8186;57.652;11.968;2023-03-17T03:44:52;3.90;;;1.40;;
11006;SDS011;8186;57.652;11.968;2023-03-17T03:47:20;4.73;;;1.53;;
11006;SDS011;8186;57.652;11.968;2023-03-17T03:49:48;2.60;;;1.07;;
11006;SDS011;8186;57.652;11.968;2023-03-17T03:52:15;3.30;;;1.30;;
11006;SDS011;8186;57.652;11.968;2023-03-17T03:54:42;3.33;;;1.23;;
11006;SDS011;8186;57.652;11.968;2023-03-17T03:57:10;1.63;;;1.00;;
11006;SDS011;8186;57.652;11.968;2023-03-17T03:59:37;2.67;;;0.90;;
11006;SDS011;8186;57.652;11.968;2023-03-17T04:02:04;3.00;;;1.50;;
11006;SDS011;8186;57.652;11.968;2023-03-17T04:04:32;1.73;;;1.07;;
11006;SDS011;8186;57.652;11.968;2023-03-17T04:07:01;1.97;;;1.20;;
11006;SDS011;8186;57.652;11.968;2023-03-17T04:09:29;3.30;;;1.20;;
11006;SDS011;8186;57.652;11.968;2023-03-17T04:11:56;3.70;;;1.20;;
11006;SDS011;8186;57.652;11.968;2023-03-17T04:14:23;4.63;;;1.40;;
11006;SDS011;8186;57.652;11.968;2023-03-17T04:16:50;3.13;;;1.20;;
11006;SDS011;8186;57.652;11.968;2023-03-17T04:19:18;2.87;;;1.10;;
11006;SDS011;8186;57.652;11.968;2023-03-17T04:21:46;2.00;;;1.20;;
11006;SDS011;8186;57.652;11.968;2023-03-17T04:24:15;2.17;;;1.30;;
11006;SDS011;8186;57.652;11.968;2023-03-17T04:26:43;2.33;;;1.30;;
11006;SDS011;8186;57.652;11.968;2023-03-17T04:29:10;4.40;;;1.30;;
11006;SDS011;8186;57.652;11.968;2023-03-17T04:31:40;4.63;;;1.20;;
11006;SDS011;8186;57.652;11.968;2023-03-17T04:34:09;2.37;;;1.20;;
11006;SDS011;8186;57.652;11.968;2023-03-17T04:36:38;2.13;;;1.20;;
11006;SDS011;8186;57.652;11.968;2023-03-17T04:39:06;3.90;;;1.50;;
11006;SDS011;8186;57.652;11.968;2023-03-17T04:41:35;3.63;;;1.63;;
11006;SDS011;8186;57.652;11.968;2023-03-17T04:44:02;3.50;;;1.50;;
11006;SDS011;8186;57.652;11.968;2023-03-17T04:46:29;3.40;;;1.57;;
11006;SDS011;8186;57.652;11.968;2023-03-17T04:48:57;3.53;;;1.50;;
11006;SDS011;8186;57.652;11.968;2023-03-17T04:51:24;2.77;;;1.50;;
11006;SDS011;8186;57.652;11.968;2023-03-17T04:53:51;4.00;;;1.57;;
11006;SDS011;8186;57.652;11.968;2023-03-17T04:56:20;3.20;;;1.53;;
11006;SDS011;8186;57.652;11.968;2023-03-17T04:58:49;4.27;;;1.67;;
11006;SDS011;8186;57.652;11.968;2023-03-17T05:01:16;4.70;;;2.43;;
11006;SDS011;8186;57.652;11.968;2023-03-17T05:03:43;2.10;;;1.40;;
11006;SDS011;8186;57.652;11.968;2023-03-17T05:06:10;4.07;;;1.80;;
11006;SDS011;8186;57.652;11.968;2023-03-17T05:08:38;3.83;;;1.80;;
11006;SDS011;8186;57.652;11.968;2023-03-17T05:11:07;3.70;;;1.73;;
11006;SDS011;8186;57.652;11.968;2023-03-17T05:13:35;5.07;;;1.73;;
11006;SDS011;8186;57.652;11.968;2023-03-17T05:16:05;5.07;;;1.90;;
11006;SDS011;8186;57.652;11.968;2023-03-17T05:18:34;5.73;;;1.63;;
11006;SDS011;8186;57.652;11.968;2023-03-17T05:21:02;5.33;;;1.90;;
11006;SDS011;8186;57.652;11.968;2023-03-17T05:23:32;5.23;;;1.90;;
11006;SDS011;8186;57.652;11.968;2023-03-17T05:25:59;3.00;;;1.77;;
11006;SDS011;8186;57.652;11.968;2023-03-17T05:28:26;4.27;;;2.10;;
11006;SDS011;8186;57.652;11.968;2023-03-17T05:30:54;4.37;;;1.80;;
11006;SDS011;8186;57.652;11.968;2023-03-17T05:33:23;3.70;;;2.23;;
11006;SDS011;8186;57.652;11.968;2023-03-17T05:35:51;5.23;;;2.23;;
11006;SDS011;8186;57.652;11.968;2023-03-17T05:38:19;5.43;;;2.23;;
11006;SDS011;8186;57.652;11.968;2023-03-17T05:40:48;5.43;;;2.50;;
11006;SDS011;8186;57.652;11.968;2023-03-17T05:43:17;3.80;;;1.97;;
11006;SDS011;8186;57.652;11.968;2023-03-17T05:45:44;5.03;;;2.30;;
11006;SDS011;8186;57.652;11.968;2023-03-17T05:48:12;4.90;;;2.13;;
11006;SDS011;8186;57.652;11.968;2023-03-17T05:50:40;5.67;;;2.20;;
11006;SDS011;8186;57.652;11.968;2023-03-17T05:53:08;4.50;;;2.00;;
11006;SDS011;8186;57.652;11.968;2023-03-17T05:55:35;5.87;;;2.47;;
11006;SDS011;8186;57.652;11.968;2023-03-17T05:58:02;5.43;;;2.03;;
11006;SDS011;8186;57.652;11.968;2023-03-17T06:00:30;3.50;;;1.70;;
11006;SDS011;8186;57.652;11.968;2023-03-17T06:02:58;5.33;;;2.10;;
11006;SDS011;8186;57.652;11.968;2023-03-17T06:05:26;4.57;;;2.03;;
11006;SDS011;8186;57.652;11.968;2023-03-17T06:07:54;3.13;;;1.90;;
11006;SDS011;8186;57.652;11.968;2023-03-17T06:10:22;5.93;;;1.97;;
11006;SDS011;8186;57.652;11.968;2023-03-17T06:12:49;8.27;;;2.20;;
11006;SDS011;8186;57.652;11.968;2023-03-17T06:15:17;6.60;;;2.40;;
11006;SDS011;8186;57.652;11.968;2023-03-17T06:17:44;6.60;;;2.17;;
11006;SDS011;8186;57.652;11.968;2023-03-17T06:20:11;5.63;;;1.93;;
11006;SDS011;8186;57.652;11.968;2023-03-17T06:22:39;5.73;;;2.00;;
11006;SDS011;8186;57.652;11.968;2023-03-17T06:25:09;6.87;;;2.20;;
11006;SDS011;8186;57.652;11.968;2023-03-17T06:27:39;4.90;;;2.23;;
11006;SDS011;8186;57.652;11.968;2023-03-17T06:30:07;6.30;;;2.40;;
11006;SDS011;8186;57.652;11.968;2023-03-17T06:32:35;4.87;;;2.50;;
11006;SDS011;8186;57.652;11.968;2023-03-17T06:35:03;5.10;;;2.43;;
11006;SDS011;8186;57.652;11.968;2023-03-17T06:37:31;5.00;;;2.23;;
11006;SDS011;8186;57.652;11.968;2023-03-17T06:40:00;5.00;;;2.50;;
11006;SDS011;8186;57.652;11.968;2023-03-17T06:42:31;7.53;;;3.20;;
11006;SDS011;8186;57.652;11.968;2023-03-17T06:44:58;4.27;;;2.47;;
11006;SDS011;8186;57.652;11.968;2023-03-17T06:47:25;8.13;;;2.73;;
11006;SDS011;8186;57.652;11.968;2023-03-17T06:49:52;4.53;;;2.50;;
11006;SDS011;8186;57.652;11.968;2023-03-17T06:52:20;7.67;;;2.50;;
11006;SDS011;8186;57.652;11.968;2023-03-17T06:54:47;8.17;;;2.80;;
11006;SDS011;8186;57.652;11.968;2023-03-17T06:57:14;7.10;;;2.50;;
11006;SDS011;8186;57.652;11.968;2023-03-17T06:59:45;5.03;;;3.07;;
11006;SDS011;8186;57.652;11.968;2023-03-17T07:02:12;5.13;;;2.73;;
11006;SDS011;8186;57.652;11.968;2023-03-17T07:04:39;4.93;;;2.57;;
11006;SDS011;8186;57.652;11.968;2023-03-17T07:07:06;5.03;;;2.40;;
11006;SDS011;8186;57.652;11.968;2023-03-17T07:09:33;6.40;;;3.20;;
11006;SDS011;8186;57.652;11.968;2023-03-17T07:12:01;8.70;;;2.73;;
11006;SDS011;8186;57.652;11.968;2023-03-17T07:14:30;10.00;;;2.90;;
11006;SDS011;8186;57.652;11.968;2023-03-17T07:17:00;8.13;;;3.17;;
11006;SDS011;8186;57.652;11.968;2023-03-17T07:19:29;5.97;;;2.80;;
11006;SDS011;8186;57.652;11.968;2023-03-17T07:21:57;8.67;;;3.33;;
11006;SDS011;8186;57.652;11.968;2023-03-17T07:24:24;5.77;;;2.60;;
11006;SDS011;8186;57.652;11.968;2023-03-17T07:26:52;8.40;;;3.93;;
11006;SDS011;8186;57.652;11.968;2023-03-17T07:29:19;5.50;;;3.23;;
11006;SDS011;8186;57.652;11.968;2023-03-17T07:31:47;9.77;;;3.67;;
11006;SDS011;8186;57.652;11.968;2023-03-17T07:34:17;4.83;;;2.70;;
11006;SDS011;8186;57.652;11.968;2023-03-17T07:36:44;9.73;;;3.47;;
11006;SDS011;8186;57.652;11.968;2023-03-17T07:39:11;6.23;;;2.90;;
11006;SDS011;8186;57.652;11.968;2023-03-17T07:41:38;6.33;;;3.13;;
11006;SDS011;8186;57.652;11.968;2023-03-17T07:44:05;8.43;;;3.60;;
11006;SDS011;8186;57.652;11.968;2023-03-17T07:46:33;9.23;;;3.50;;
11006;SDS011;8186;57.652;11.968;2023-03-17T07:49:01;4.47;;;2.93;;
11006;SDS011;8186;57.652;11.968;2023-03-17T07:51:30;6.23;;;3.20;;
11006;SDS011;8186;57.652;11.968;2023-03-17T07:53:57;6.30;;;3.47;;
11006;SDS011;8186;57.652;11.968;2023-03-17T07:56:28;6.47;;;3.03;;
11006;SDS011;8186;57.652;11.968;2023-03-17T07:58:56;5.77;;;2.87;;
11006;SDS011;8186;57.652;11.968;2023-03-17T08:01:25;5.53;;;3.10;;
11006;SDS011;8186;57.652;11.968;2023-03-17T08:03:53;10.23;;;3.63;;
11006;SDS011;8186;57.652;11.968;2023-03-17T08:06:20;8.10;;;3.57;;
11006;SDS011;8186;57.652;11.968;2023-03-17T08:08:51;8.80;;;3.80;;
11006;SDS011;8186;57.652;11.968;2023-03-17T08:11:18;8.97;;;3.63;;
11006;SDS011;8186;57.652;11.968;2023-03-17T08:13:47;4.63;;;3.20;;
11006;SDS011;8186;57.652;11.968;2023-03-17T08:16:15;7.13;;;3.07;;
11006;SDS011;8186;57.652;11.968;2023-03-17T08:18:42;6.33;;;3.37;;
11006;SDS011;8186;57.652;11.968;2023-03-17T08:21:09;8.20;;;3.53;;
11006;SDS011;8186;57.652;11.968;2023-03-17T08:23:37;6.33;;;3.43;;
11006;SDS011;8186;57.652;11.968;2023-03-17T08:26:09;4.57;;;3.00;;
11006;SDS011;8186;57.652;11.968;2023-03-17T08:28:40;9.80;;;4.00;;
11006;SDS011;8186;57.652;11.968;2023-03-17T08:31:08;6.53;;;3.20;;
11006;SDS011;8186;57.652;11.968;2023-03-17T08:33:37;8.07;;;3.23;;
11006;SDS011;8186;57.652;11.968;2023-03-17T08:36:07;7.00;;;3.67;;
11006;SDS011;8186;57.652;11.968;2023-03-17T08:38:35;6.60;;;3.70;;
11006;SDS011;8186;57.652;11.968;2023-03-17T08:41:08;4.83;;;3.10;;
11006;SDS011;8186;57.652;11.968;2023-03-17T08:43:38;4.47;;;3.30;;
11006;SDS011;8186;57.652;11.968;2023-03-17T08:46:09;6.97;;;3.53;;
11006;SDS011;8186;57.652;11.968;2023-03-17T08:48:39;7.53;;;4.43;;
11006;SDS011;8186;57.652;11.968;2023-03-17T08:51:07;9.90;;;3.40;;
11006;SDS011;8186;57.652;11.968;2023-03-17T08:53:35;7.50;;;3.10;;
11006;SDS011;8186;57.652;11.968;2023-03-17T08:56:02;6.47;;;3.37;;
11006;SDS011;8186;57.652;11.968;2023-03-17T08:58:32;6.00;;;3.93;;
11006;SDS011;8186;57.652;11.968;2023-03-17T09:01:01;7.60;;;3.60;;
11006;SDS011;8186;57.652;11.968;2023-03-17T09:03:30;6.80;;;3.50;;
11006;SDS011;8186;57.652;11.968;2023-03-17T09:05:58;6.73;;;3.30;;
11006;SDS011;8186;57.652;11.968;2023-03-17T09:08:26;6.77;;;3.93;;
11006;SDS011;8186;57.652;11.968;2023-03-17T09:10:54;6.60;;;3.60;;
11006;SDS011;8186;57.652;11.968;2023-03-17T09:13:21;11.00;;;4.57;;
11006;SDS011;8186;57.652;11.968;2023-03-17T09:16:03;8.37;;;4.47;;
11006;SDS011;8186;57.652;11.968;2023-03-17T09:18:32;8.30;;;4.30;;
11006;SDS011;8186;57.652;11.968;2023-03-17T09:20:59;10.00;;;4.27;;
11006;SDS011;8186;57.652;11.968;2023-03-17T09:23:26;5.73;;;4.10;;
11006;SDS011;8186;57.652;11.968;2023-03-17T09:25:54;6.67;;;3.80;;
11006;SDS011;8186;57.652;11.968;2023-03-17T09:28:21;11.40;;;4.27;;
11006;SDS011;8186;57.652;11.968;2023-03-17T09:30:49;5.83;;;3.93;;
11006;SDS011;8186;57.652;11.968;2023-03-17T09:33:19;6.73;;;3.90;;
11006;SDS011;8186;57.652;11.968;2023-03-17T09:35:46;5.83;;;4.53;;
11006;SDS011;8186;57.652;11.968;2023-03-17T09:38:15;8.80;;;4.50;;
11006;SDS011;8186;57.652;11.968;2023-03-17T09:40:44;7.27;;;4.33;;
11006;SDS011;8186;57.652;11.968;2023-03-17T09:43:16;10.20;;;4.80;;
11006;SDS011;8186;57.652;11.968;2023-03-17T09:45:52;7.23;;;4.40;;
11006;SDS011;8186;57.652;11.968;2023-03-17T09:48:30;8.40;;;4.20;;
11006;SDS011;8186;57.652;11.968;2023-03-17T09:51:05;8.13;;;4.33;;
11006;SDS011;8186;57.652;11.968;2023-03-17T09:53:35;10.07;;;4.50;;
11006;SDS011;8186;57.652;11.968;2023-03-17T09:56:06;7.90;;;4.57;;
11006;SDS011;8186;57.652;11.968;2023-03-17T09:58:35;6.63;;;4.20;;
11006;SDS011;8186;57.652;11.968;2023-03-17T10:01:03;8.80;;;5.10;;
11006;SDS011;8186;57.652;11.968;2023-03-17T10:03:34;8.40;;;4.60;;
11006;SDS011;8186;57.652;11.968;2023-03-17T10:06:10;5.67;;;4.57;;
11006;SDS011;8186;57.652;11.968;2023-03-17T10:08:54;6.43;;;4.27;;
11006;SDS011;8186;57.652;11.968;2023-03-17T10:11:27;8.97;;;4.97;;
11006;SDS011;8186;57.652;11.968;2023-03-17T10:13:59;9.33;;;5.00;;
11006;SDS011;8186;57.652;11.968;2023-03-17T10:16:30;7.60;;;5.10;;
11006;SDS011;8186;57.652;11.968;2023-03-17T10:19:07;5.00;;;3.90;;
11006;SDS011;8186;57.652;11.968;2023-03-17T10:21:40;6.90;;;5.10;;
11006;SDS011;8186;57.652;11.968;2023-03-17T10:24:10;9.40;;;4.87;;
11006;SDS011;8186;57.652;11.968;2023-03-17T10:26:38;7.10;;;3.93;;
11006;SDS011;8186;57.652;11.968;2023-03-17T10:29:09;8.03;;;4.20;;
11006;SDS011;8186;57.652;11.968;2023-03-17T10:31:37;7.83;;;4.47;;
11006;SDS011;8186;57.652;11.968;2023-03-17T10:34:12;7.83;;;4.60;;
11006;SDS011;8186;57.652;11.968;2023-03-17T10:36:41;7.47;;;4.73;;
11006;SDS011;8186;57.652;11.968;2023-03-17T10:39:11;7.47;;;4.57;;
11006;SDS011;8186;57.652;11.968;2023-03-17T10:41:45;5.97;;;4.37;;
11006;SDS011;8186;57.652;11.968;2023-03-17T10:44:22;7.17;;;4.67;;
11006;SDS011;8186;57.652;11.968;2023-03-17T10:46:55;7.30;;;4.20;;
11006;SDS011;8186;57.652;11.968;2023-03-17T10:49:24;9.57;;;4.60;;
11006;SDS011;8186;57.652;11.968;2023-03-17T10:51:52;5.03;;;3.90;;
11006;SDS011;8186;57.652;11.968;2023-03-17T10:54:20;8.50;;;4.60;;
11006;SDS011;8186;57.652;11.968;2023-03-17T10:56:54;7.67;;;4.40;;
11006;SDS011;8186;57.652;11.968;2023-03-17T10:59:26;6.23;;;4.20;;
11006;SDS011;8186;57.652;11.968;2023-03-17T11:01:57;8.03;;;4.27;;
11006;SDS011;8186;57.652;11.968;2023-03-17T11:04:31;7.73;;;4.47;;
11006;SDS011;8186;57.652;11.968;2023-03-17T11:07:04;7.40;;;4.17;;
11006;SDS011;8186;57.652;11.968;2023-03-17T11:09:34;7.03;;;4.53;;
11006;SDS011;8186;57.652;11.968;2023-03-17T11:12:05;7.50;;;4.50;;
11006;SDS011;8186;57.652;11.968;2023-03-17T11:14:36;8.87;;;4.70;;
11006;SDS011;8186;57.652;11.968;2023-03-17T11:17:03;6.27;;;4.00;;
11006;SDS011;8186;57.652;11.968;2023-03-17T11:19:42;8.67;;;4.40;;
11006;SDS011;8186;57.652;11.968;2023-03-17T11:22:18;6.57;;;4.03;;
11006;SDS011;8186;57.652;11.968;2023-03-17T11:24:51;8.93;;;5.00;;
11006;SDS011;8186;57.652;11.968;2023-03-17T11:27:26;8.97;;;5.00;;
11006;SDS011;8186;57.652;11.968;2023-03-17T11:30:03;7.67;;;4.23;;
11006;SDS011;8186;57.652;11.968;2023-03-17T11:32:40;8.77;;;4.13;;
11006;SDS011;8186;57.652;11.968;2023-03-17T11:35:17;6.63;;;3.90;;
11006;SDS011;8186;57.652;11.968;2023-03-17T11:38:02;8.70;;;4.40;;
11006;SDS011;8186;57.652;11.968;2023-03-17T11:40:52;8.87;;;4.60;;
11006;SDS011;8186;57.652;11.968;2023-03-17T11:43:36;6.50;;;4.60;;
11006;SDS011;8186;57.652;11.968;2023-03-17T11:46:10;8.23;;;4.83;;
11006;SDS011;8186;57.652;11.968;2023-03-17T11:48:44;6.60;;;5.00;;
11006;SDS011;8186;57.652;11.968;2023-03-17T11:51:26;8.80;;;4.60;;
11006;SDS011;8186;57.652;11.968;2023-03-17T11:53:58;10.73;;;5.13;;
11006;SDS011;8186;57.652;11.968;2023-03-17T11:56:38;7.00;;;4.83;;
11006;SDS011;8186;57.652;11.968;2023-03-17T11:59:11;4.83;;;3.80;;
11006;SDS011;8186;57.652;11.968;2023-03-17T12:01:46;8.53;;;4.63;;
11006;SDS011;8186;57.652;11.968;2023-03-17T12:04:21;8.93;;;4.37;;
11006;SDS011;8186;57.652;11.968;2023-03-17T12:06:57;8.93;;;4.10;;
11006;SDS011;8186;57.652;11.968;2023-03-17T12:09:29;8.47;;;4.70;;
11006;SDS011;8186;57.652;11.968;2023-03-17T12:11:58;8.63;;;4.30;;
11006;SDS011;8186;57.652;11.968;2023-03-17T12:14:27;7.40;;;4.20;;
11006;SDS011;8186;57.652;11.968;2023-03-17T12:16:59;10.03;;;4.80;;
11006;SDS011;8186;57.652;11.968;2023-03-17T12:19:32;5.03;;;4.03;;
11006;SDS011;8186;57.652;11.968;2023-03-17T12:22:13;8.37;;;4.40;;
11006;SDS011;8186;57.652;11.968;2023-03-17T12:24:46;7.50;;;4.30;;
11006;SDS011;8186;57.652;11.968;2023-03-17T12:27:18;7.53;;;4.53;;
11006;SDS011;8186;57.652;11.968;2023-03-17T12:29:52;6.37;;;4.27;;
11006;SDS011;8186;57.652;11.968;2023-03-17T12:32:28;7.97;;;4.60;;
11006;SDS011;8186;57.652;11.968;2023-03-17T12:35:01;8.17;;;4.63;;
11006;SDS011;8186;57.652;11.968;2023-03-17T12:37:37;7.37;;;4.60;;
11006;SDS011;8186;57.652;11.968;2023-03-17T12:40:06;9.17;;;4.57;;
11006;SDS011;8186;57.652;11.968;2023-03-17T12:42:40;9.13;;;4.90;;
11006;SDS011;8186;57.652;11.968;2023-03-17T12:45:20;10.00;;;4.97;;
11006;SDS011;8186;57.652;11.968;2023-03-17T12:47:56;9.13;;;4.93;;
11006;SDS011;8186;57.652;11.968;2023-03-17T12:50:39;10.33;;;4.67;;
11006;SDS011;8186;57.652;11.968;2023-03-17T12:53:19;8.20;;;4.80;;
11006;SDS011;8186;57.652;11.968;2023-03-17T12:55:52;8.53;;;5.07;;
11006;SDS011;8186;57.652;11.968;2023-03-17T12:58:32;7.23;;;4.20;;
11006;SDS011;8186;57.652;11.968;2023-03-17T13:01:05;7.20;;;4.80;;
11006;SDS011;8186;57.652;11.968;2023-03-17T13:03:43;7.37;;;5.57;;
11006;SDS011;8186;57.652;11.968;2023-03-17T13:06:14;9.50;;;5.43;;
11006;SDS011;8186;57.652;11.968;2023-03-17T13:08:44;5.00;;;4.10;;
11006;SDS011;8186;57.652;11.968;2023-03-17T13:11:15;8.57;;;4.80;;
11006;SDS011;8186;57.652;11.968;2023-03-17T13:13:55;6.43;;;4.87;;
11006;SDS011;8186;57.652;11.968;2023-03-17T13:16:25;8.73;;;5.30;;
11006;SDS011;8186;57.652;11.968;2023-03-17T13:21:44;7.73;;;4.80;;
11006;SDS011;8186;57.652;11.968;2023-03-17T13:24:33;9.40;;;4.97;;
11006;SDS011;8186;57.652;11.968;2023-03-17T13:27:03;8.90;;;5.27;;
11006;SDS011;8186;57.652;11.968;2023-03-17T13:29:39;10.17;;;5.10;;
11006;SDS011;8186;57.652;11.968;2023-03-17T13:32:31;8.47;;;4.67;;
11006;SDS011;8186;57.652;11.968;2023-03-17T13:35:12;7.57;;;5.17;;
11006;SDS011;8186;57.652;11.968;2023-03-17T13:40:36;7.90;;;4.83;;
11006;SDS011;8186;57.652;11.968;2023-03-17T13:43:13;5.77;;;4.40;;
11006;SDS011;8186;57.652;11.968;2023-03-17T13:45:47;8.73;;;5.03;;
11006;SDS011;8186;57.652;11.968;2023-03-17T13:48:30;9.47;;;5.47;;
11006;SDS011;8186;57.652;11.968;2023-03-17T13:50:59;9.40;;;5.63;;
11006;SDS011;8186;57.652;11.968;2023-03-17T13:53:45;11.17;;;6.03;;
11006;SDS011;8186;57.652;11.968;2023-03-17T13:56:16;12.87;;;6.20;;
11006;SDS011;8186;57.652;11.968;2023-03-17T13:58:49;10.47;;;5.67;;
11006;SDS011;8186;57.652;11.968;2023-03-17T14:01:18;11.27;;;5.70;;
11006;SDS011;8186;57.652;11.968;2023-03-17T14:03:48;10.13;;;6.30;;
11006;SDS011;8186;57.652;11.968;2023-03-17T14:06:16;15.60;;;7.47;;
11006;SDS011;8186;57.652;11.968;2023-03-17T14:08:47;12.70;;;6.30;;
11006;SDS011;8186;57.652;11.968;2023-03-17T14:11:21;8.97;;;5.60;;
11006;SDS011;8186;57.652;11.968;2023-03-17T14:13:54;10.50;;;6.20;;
11006;SDS011;8186;57.652;11.968;2023-03-17T14:16:30;8.83;;;5.60;;
11006;SDS011;8186;57.652;11.968;2023-03-17T14:19:00;10.03;;;6.17;;
11006;SDS011;8186;57.652;11.968;2023-03-17T14:21:38;10.00;;;5.10;;
11006;SDS011;8186;57.652;11.968;2023-03-17T14:24:15;10.20;;;5.83;;
11006;SDS011;8186;57.652;11.968;2023-03-17T14:26:46;11.43;;;5.90;;
11006;SDS011;8186;57.652;11.968;2023-03-17T14:29:15;10.23;;;6.17;;
11006;SDS011;8186;57.652;11.968;2023-03-17T14:31:45;12.23;;;6.27;;
11006;SDS011;8186;57.652;11.968;2023-03-17T14:34:15;10.00;;;6.23;;
11006;SDS011;8186;57.652;11.968;2023-03-17T14:36:42;10.33;;;6.13;;
11006;SDS011;8186;57.652;11.968;2023-03-17T14:39:19;12.50;;;6.13;;
11006;SDS011;8186;57.652;11.968;2023-03-17T14:42:01;9.40;;;5.57;;
11006;SDS011;8186;57.652;11.968;2023-03-17T14:44:36;10.90;;;6.03;;
11006;SDS011;8186;57.652;11.968;2023-03-17T14:47:04;10.50;;;7.03;;
11006;SDS011;8186;57.652;11.968;2023-03-17T14:49:33;11.33;;;5.77;;
11006;SDS011;8186;57.652;11.968;2023-03-17T14:52:00;11.63;;;6.37;;
11006;SDS011;8186;57.652;11.968;2023-03-17T14:54:29;8.53;;;5.83;;
11006;SDS011;8186;57.652;11.968;2023-03-17T14:57:01;10.80;;;6.20;;
11006;SDS011;8186;57.652;11.968;2023-03-17T14:59:32;11.27;;;6.03;;
11006;SDS011;8186;57.652;11.968;2023-03-17T15:02:13;10.67;;;6.47;;
11006;SDS011;8186;57.652;11.968;2023-03-17T15:04:50;11.10;;;5.70;;
11006;SDS011;8186;57.652;11.968;2023-03-17T15:07:29;9.93;;;6.50;;
11006;SDS011;8186;57.652;11.968;2023-03-17T15:09:58;8.67;;;5.67;;
11006;SDS011;8186;57.652;11.968;2023-03-17T15:12:28;9.43;;;6.57;;
11006;SDS011;8186;57.652;11.968;2023-03-17T15:14:57;9.17;;;6.40;;